createdAt,value
2023-04-15T00:01:51.913Z,98837.72
2023-04-15T00:04:18.745Z,98841.97
2023-04-15T00:06:53.033Z,98838.59
2023-04-15T00:09:21.486Z,98836.94
2023-04-15T00:11:48.260Z,98828.53
2023-04-15T00:14:15.523Z,98826.03
2023-04-15T00:16:42.245Z,98830.28
2023-04-15T00:19:09.012Z,98826.09
2023-04-15T00:21:35.871Z,98826.97
2023-04-15T00:24:02.565Z,98830.31
2023-04-15T00:26:29.258Z,98826.16
2023-04-15T00:28:56.086Z,98827.81
2023-04-15T00:31:23.016Z,98827.88
2023-04-15T00:33:49.896Z,98831.22
2023-04-15T00:36:16.662Z,98827.88
2023-04-15T00:38:43.346Z,98824.53
2023-04-15T00:41:11.212Z,98823.69
2023-04-15T00:43:38.266Z,98829.59
2023-04-15T00:46:06.596Z,98828.78
2023-04-15T00:48:33.422Z,98830.47
2023-04-15T00:51:00.177Z,98829.66
2023-04-15T00:53:26.884Z,98820.44
2023-04-15T00:55:54.445Z,98822.09
2023-04-15T00:58:21.233Z,98822.13
2023-04-15T01:00:49.126Z,98820.44
2023-04-15T01:03:16.256Z,98824.63
2023-04-15T01:05:43.127Z,98828.03
2023-04-15T01:08:09.862Z,98828.88
2023-04-15T01:10:37.782Z,98815.41
2023-04-15T01:13:04.567Z,98822.16
2023-04-15T01:15:32.061Z,98821.31
2023-04-15T01:18:03.205Z,98824.69
2023-04-15T01:20:30.272Z,98816.28
2023-04-15T01:22:57.078Z,98817.97
2023-04-15T01:25:34.701Z,98820.50
2023-04-15T01:28:02.099Z,98818.81
2023-04-15T01:30:29.144Z,98813.78
2023-04-15T01:32:56.065Z,98814.59
2023-04-15T01:35:23.925Z,98813.78
2023-04-15T01:37:51.211Z,98814.63
2023-04-15T01:40:18.017Z,98809.59
2023-04-15T01:42:44.760Z,98806.25
2023-04-15T01:45:12.349Z,98804.56
2023-04-15T01:47:39.353Z,98809.59
2023-04-15T01:50:06.908Z,98811.28
2023-04-15T01:52:33.775Z,98807.09
2023-04-15T01:55:00.595Z,98810.44
2023-04-15T01:57:27.381Z,98803.69
2023-04-15T01:59:54.113Z,98806.22
2023-04-15T02:02:21.074Z,98834.00
2023-04-15T02:04:47.837Z,98827.31
2023-04-15T02:07:14.561Z,98826.50
2023-04-15T02:09:41.376Z,98829.94
2023-04-15T02:12:08.096Z,98832.44
2023-04-15T02:14:34.924Z,98827.44
2023-04-15T02:17:07.194Z,98823.25
2023-04-15T02:19:35.407Z,98823.31
2023-04-15T02:22:02.528Z,98825.88
2023-04-15T02:24:31.611Z,98834.31
2023-04-15T02:26:58.329Z,98836.03
2023-04-15T02:29:25.390Z,98832.69
2023-04-15T02:31:52.122Z,98834.41
2023-04-15T02:34:18.862Z,98825.19
2023-04-15T02:36:47.461Z,98825.16
2023-04-15T02:39:16.729Z,98829.38
2023-04-15T02:41:43.883Z,98826.88
2023-04-15T02:44:12.893Z,98838.63
2023-04-15T02:46:41.142Z,98835.25
2023-04-15T02:49:08.520Z,98832.72
2023-04-15T02:51:35.456Z,98834.44
2023-04-15T02:54:02.293Z,98840.31
2023-04-15T02:56:30.128Z,98844.50
2023-04-15T02:58:57.263Z,98847.06
2023-04-15T03:01:24.076Z,98845.38
2023-04-15T03:03:51.069Z,98834.47
2023-04-15T03:06:17.840Z,98840.34
2023-04-15T03:08:45.309Z,98842.88
2023-04-15T03:11:12.582Z,98848.78
2023-04-15T03:13:41.693Z,98849.63
2023-04-15T03:16:09.189Z,98847.97
2023-04-15T03:18:36.252Z,98847.13
2023-04-15T03:21:03.189Z,98847.94
2023-04-15T03:23:32.085Z,98852.16
2023-04-15T03:26:02.424Z,98844.63
2023-04-15T03:28:29.993Z,98849.69
2023-04-15T03:30:56.859Z,98847.19
2023-04-15T03:33:23.575Z,98848.88
2023-04-15T03:35:52.292Z,98857.28
2023-04-15T03:38:19.137Z,98848.88
2023-04-15T03:40:47.097Z,98851.44
2023-04-15T03:43:13.875Z,98853.94
2023-04-15T03:45:40.574Z,98853.13
2023-04-15T03:48:17.253Z,98852.31
2023-04-15T03:50:46.073Z,98852.31
2023-04-15T03:53:12.974Z,98850.66
2023-04-15T03:55:40.101Z,98859.06
2023-04-15T03:58:06.912Z,98855.72
2023-04-15T04:00:33.631Z,98858.25
2023-04-15T04:03:00.688Z,98858.22
2023-04-15T04:05:27.581Z,98854.91
2023-04-15T04:07:54.284Z,98859.91
2023-04-15T04:10:21.150Z,98860.75
2023-04-15T04:12:47.848Z,98860.75
2023-04-15T04:15:14.553Z,98859.09
2023-04-15T04:17:41.292Z,98870.84
2023-04-15T04:20:08.654Z,98864.13
2023-04-15T04:22:40.038Z,98862.41
2023-04-15T04:25:08.558Z,98866.63
2023-04-15T04:27:35.354Z,98871.66
2023-04-15T04:30:02.150Z,98876.72
2023-04-15T04:32:28.937Z,98871.66
2023-04-15T04:34:55.924Z,98873.31
2023-04-15T04:37:23.531Z,98878.38
2023-04-15T04:39:50.629Z,98878.34
2023-04-15T04:42:17.335Z,98876.66
2023-04-15T04:44:44.026Z,98883.41
2023-04-15T04:47:11.384Z,98878.34
2023-04-15T04:49:38.178Z,98892.59
2023-04-15T04:52:04.966Z,98895.13
2023-04-15T04:54:31.805Z,98898.50
2023-04-15T04:56:58.553Z,98909.41
2023-04-15T04:59:25.480Z,98912.75
2023-04-15T05:01:52.688Z,98906.03
2023-04-15T05:04:19.454Z,98911.94
2023-04-15T05:06:46.432Z,98914.44
2023-04-15T05:09:13.132Z,98922.03
2023-04-15T05:11:39.870Z,98923.66
2023-04-15T05:14:06.845Z,98924.53
2023-04-15T05:16:33.589Z,98932.94
2023-04-15T05:19:00.568Z,98934.59
2023-04-15T05:21:27.652Z,98937.94
2023-04-15T05:23:54.496Z,98946.31
2023-04-15T05:26:22.046Z,98947.16
2023-04-15T05:28:49.575Z,98948.00
2023-04-15T05:31:16.739Z,98944.59
2023-04-15T05:33:43.718Z,98945.41
2023-04-15T05:36:10.458Z,98945.34
2023-04-15T05:38:37.308Z,98957.91
2023-04-15T05:41:04.338Z,98962.91
2023-04-15T05:43:31.509Z,98961.16
2023-04-15T05:45:58.219Z,98967.75
2023-04-15T05:48:24.912Z,98966.81
2023-04-15T05:50:51.579Z,98961.53
2023-04-15T05:53:18.305Z,98966.41
2023-04-15T05:55:44.991Z,98972.91
2023-04-15T05:58:12.496Z,98981.09
2023-04-15T06:00:39.877Z,98979.16
2023-04-15T06:03:07.832Z,98981.47
2023-04-15T06:05:34.671Z,98982.06
2023-04-15T06:08:01.911Z,98991.09
2023-04-15T06:10:28.638Z,99001.00
2023-04-15T06:12:55.512Z,98999.19
2023-04-15T06:15:22.856Z,99006.56
2023-04-15T06:17:49.588Z,99007.22
2023-04-15T06:20:16.462Z,99009.56
2023-04-15T06:22:44.541Z,99008.56
2023-04-15T06:25:11.288Z,99010.03
2023-04-15T06:27:38.058Z,99019.91
2023-04-15T06:30:06.388Z,99019.63
2023-04-15T06:32:33.302Z,99014.25
2023-04-15T06:35:00.174Z,99026.50
2023-04-15T06:37:26.954Z,99034.50
2023-04-15T06:39:53.675Z,99027.25
2023-04-15T06:42:20.414Z,99031.78
2023-04-15T06:44:47.130Z,99030.34
2023-04-15T06:47:14.689Z,99039.03
2023-04-15T06:49:43.047Z,99045.16
2023-04-15T06:52:11.310Z,99047.72
2023-04-15T06:54:38.015Z,99051.75
2023-04-15T06:57:04.721Z,99055.47
2023-04-15T06:59:31.707Z,99053.13
2023-04-15T07:01:58.518Z,99049.41
2023-04-15T07:04:25.610Z,99053.28
2023-04-15T07:06:52.397Z,99062.97
2023-04-15T07:09:19.782Z,99053.41
2023-04-15T07:11:46.516Z,99065.25
2023-04-15T07:14:13.274Z,99075.41
2023-04-15T07:16:40.101Z,99075.53
2023-04-15T07:19:07.337Z,99081.28
2023-04-15T07:21:34.045Z,99082.94
2023-04-15T07:24:00.720Z,99080.38
2023-04-15T07:26:27.430Z,99090.78
2023-04-15T07:28:54.110Z,99099.06
2023-04-15T07:31:21.114Z,99094.91
2023-04-15T07:33:47.895Z,99103.03
2023-04-15T07:36:15.390Z,99108.34
2023-04-15T07:38:42.502Z,99105.63
2023-04-15T07:41:09.489Z,99114.28
2023-04-15T07:43:36.164Z,99122.84
2023-04-15T07:46:02.959Z,99123.66
2023-04-15T07:48:29.691Z,99125.44
2023-04-15T07:50:56.438Z,99131.53
2023-04-15T07:53:23.144Z,99129.78
2023-04-15T07:55:49.838Z,99142.78
2023-04-15T07:58:17.355Z,99143.06
2023-04-15T08:00:44.655Z,99143.06
2023-04-15T08:03:11.809Z,99150.69
2023-04-15T08:05:38.673Z,99145.28
2023-04-15T08:08:05.448Z,99153.78
2023-04-15T08:10:32.308Z,99162.19
2023-04-15T08:12:59.115Z,99155.88
2023-04-15T08:15:26.577Z,99166.59
2023-04-15T08:17:53.368Z,99159.63
2023-04-15T08:20:20.678Z,99163.72
2023-04-15T08:22:51.725Z,99161.41
2023-04-15T08:25:19.864Z,99162.41
2023-04-15T08:27:46.604Z,99165.03
2023-04-15T08:30:13.960Z,99163.56
2023-04-15T08:32:42.589Z,99170.84
2023-04-15T08:35:10.355Z,99164.63
2023-04-15T08:37:37.082Z,99174.16
2023-04-15T08:40:05.031Z,99176.97
2023-04-15T08:42:42.376Z,99175.09
2023-04-15T08:45:13.900Z,99179.66
2023-04-15T08:47:41.749Z,99191.41
2023-04-15T08:50:10.655Z,99195.53
2023-04-15T08:52:37.629Z,99188.09
2023-04-15T08:55:06.003Z,99195.00
2023-04-15T08:57:33.785Z,99199.22
2023-04-15T09:00:05.650Z,99202.13
2023-04-15T09:02:32.864Z,99198.41
2023-04-15T09:04:59.648Z,99210.69
2023-04-15T09:07:26.990Z,99209.66
2023-04-15T09:09:54.101Z,99211.50
2023-04-15T09:12:20.823Z,99215.00
2023-04-15T09:14:49.342Z,99220.22
2023-04-15T09:17:24.684Z,99223.03
2023-04-15T09:20:13.463Z,99226.81
2023-04-15T09:22:42.219Z,99234.72
2023-04-15T09:25:30.082Z,99241.16
2023-04-15T09:28:02.845Z,99239.81
2023-04-15T09:30:30.144Z,99242.91
2023-04-15T09:33:02.955Z,99247.09
2023-04-15T09:35:29.702Z,99248.38
2023-04-15T09:38:08.751Z,99250.66
2023-04-15T09:40:41.171Z,99251.88
2023-04-15T09:43:12.806Z,99254.16
2023-04-15T09:45:48.210Z,99253.09
2023-04-15T09:48:25.385Z,99261.34
2023-04-15T09:50:53.603Z,99276.53
2023-04-15T09:53:22.544Z,99266.47
2023-04-15T09:55:54.738Z,99268.69
2023-04-15T09:58:34.828Z,99271.66
2023-04-15T10:01:05.055Z,99276.13
2023-04-15T10:03:38.686Z,99269.59
2023-04-15T10:06:05.666Z,99276.66
2023-04-15T10:08:34.819Z,99280.16
2023-04-15T10:11:03.609Z,99282.03
2023-04-15T10:13:37.090Z,99280.53
2023-04-15T10:16:16.910Z,99275.63
2023-04-15T10:18:51.364Z,99284.91
2023-04-15T10:21:19.719Z,99293.47
2023-04-15T10:23:47.664Z,99298.59
2023-04-15T10:26:17.495Z,99289.25
2023-04-15T10:28:48.289Z,99290.97
2023-04-15T10:31:16.827Z,99292.25
2023-04-15T10:33:45.847Z,99296.91
2023-04-15T10:36:13.710Z,99310.59
2023-04-15T10:38:43.164Z,99303.28
2023-04-15T10:41:28.085Z,99312.22
2023-04-15T10:44:03.394Z,99301.28
2023-04-15T10:46:43.338Z,99317.56
2023-04-15T10:49:24.259Z,99315.03
2023-04-15T10:51:59.242Z,99321.59
2023-04-15T10:54:25.870Z,99323.63
2023-04-15T10:57:07.006Z,99322.84
2023-04-15T10:59:38.730Z,99334.19
2023-04-15T11:02:08.968Z,99332.25
2023-04-15T11:04:58.582Z,99334.75
2023-04-15T11:07:38.451Z,99332.91
2023-04-15T11:10:25.449Z,99335.63
2023-04-15T11:13:00.006Z,99338.38
2023-04-15T11:15:33.707Z,99344.13
2023-04-15T11:18:09.204Z,99345.09
2023-04-15T11:20:37.390Z,99348.22
2023-04-15T11:23:10.836Z,99347.28
2023-04-15T11:25:43.622Z,99345.25
2023-04-15T11:28:13.175Z,99352.72
2023-04-15T11:30:42.343Z,99355.03
2023-04-15T11:33:13.773Z,99356.38
2023-04-15T11:35:42.563Z,99357.81
2023-04-15T11:38:12.873Z,99368.41
2023-04-15T11:40:41.596Z,99366.06
2023-04-15T11:43:14.545Z,99376.34
2023-04-15T11:45:51.402Z,99381.75
2023-04-15T11:48:19.978Z,99381.94
2023-04-15T11:50:46.778Z,99371.94
2023-04-15T11:53:14.159Z,99376.53
2023-04-15T11:55:53.308Z,99380.38
2023-04-15T11:58:25.427Z,99377.91
2023-04-15T12:01:00.154Z,99389.41
2023-04-15T12:03:43.318Z,99388.88
2023-04-15T12:06:21.632Z,99390.91
2023-04-15T12:09:07.060Z,99381.66
2023-04-15T12:11:55.372Z,99391.53
2023-04-15T12:14:32.083Z,99389.69
2023-04-15T12:17:02.003Z,99393.25
2023-04-15T12:19:42.921Z,99396.13
2023-04-15T12:22:12.727Z,99392.16
2023-04-15T12:24:40.369Z,99394.97
2023-04-15T12:27:10.891Z,99395.06
2023-04-15T12:29:41.714Z,99402.84
2023-04-15T12:32:14.258Z,99419.06
2023-04-15T12:34:51.795Z,99414.81
2023-04-15T12:37:19.427Z,99419.09
2023-04-15T12:39:48.999Z,99430.19
2023-04-15T12:42:17.419Z,99422.19
2023-04-15T12:44:44.275Z,99434.50
2023-04-15T12:47:13.389Z,99429.78
2023-04-15T12:49:41.148Z,99441.53
2023-04-15T12:52:08.125Z,99440.53
2023-04-15T12:54:35.933Z,99447.41
2023-04-15T12:57:05.531Z,99453.41
2023-04-15T12:59:33.488Z,99442.56
2023-04-15T13:02:01.175Z,99457.22
2023-04-15T13:04:30.701Z,99460.84
2023-04-15T13:06:57.717Z,99458.69
2023-04-15T13:09:24.450Z,99451.38
2023-04-15T13:11:51.346Z,99461.88
2023-04-15T13:14:18.076Z,99468.91
2023-04-15T13:16:44.809Z,99472.22
2023-04-15T13:19:11.509Z,99471.34
2023-04-15T13:21:38.213Z,99480.41
2023-04-15T13:24:07.088Z,99482.09
2023-04-15T13:26:34.299Z,99487.72
2023-04-15T13:29:01.852Z,99486.91
2023-04-15T13:31:28.710Z,99501.56
2023-04-15T13:33:57.037Z,99508.63
2023-04-15T13:36:23.798Z,99497.47
2023-04-15T13:38:51.583Z,99509.25
2023-04-15T13:41:18.828Z,99511.53
2023-04-15T13:43:45.568Z,99512.75
2023-04-15T13:46:12.343Z,99512.84
2023-04-15T13:48:39.196Z,99508.44
2023-04-15T13:51:06.293Z,99517.03
2023-04-15T13:53:39.177Z,99518.88
2023-04-15T13:56:10.264Z,99515.69
2023-04-15T13:58:40.855Z,99528.94
2023-04-15T14:01:07.733Z,99530.22
2023-04-15T14:03:36.590Z,99536.66
2023-04-15T14:06:04.807Z,99540.44
2023-04-15T14:08:31.695Z,99545.09
2023-04-15T14:10:58.730Z,99550.69
2023-04-15T14:13:25.537Z,99551.13
2023-04-15T14:15:52.328Z,99546.31
2023-04-15T14:18:19.073Z,99556.81
2023-04-15T14:20:45.973Z,99545.31
2023-04-15T14:23:12.987Z,99559.31
2023-04-15T14:25:39.754Z,99562.94
2023-04-15T14:28:06.533Z,99555.50
2023-04-15T14:30:33.510Z,99557.41
2023-04-15T14:33:00.387Z,99562.66
2023-04-15T14:35:27.337Z,99566.97
2023-04-15T14:37:55.631Z,99571.97
2023-04-15T14:40:22.689Z,99577.09
2023-04-15T14:42:49.571Z,99572.91
2023-04-15T14:45:17.523Z,99580.50
2023-04-15T14:47:44.532Z,99586.34
2023-04-15T14:50:11.409Z,99583.66
2023-04-15T14:52:41.249Z,99587.06
2023-04-15T14:55:12.836Z,99593.91
2023-04-15T14:57:41.857Z,99593.91
2023-04-15T15:00:12.195Z,99597.22
2023-04-15T15:02:42.118Z,99609.81
2023-04-15T15:05:10.693Z,99604.50
2023-04-15T15:07:39.287Z,99609.47
2023-04-15T15:10:07.044Z,99604.25
2023-04-15T15:12:34.209Z,99604.13
2023-04-15T15:15:03.094Z,99607.19
2023-04-15T15:17:32.128Z,99602.56
2023-04-15T15:19:58.988Z,99609.06
2023-04-15T15:22:26.065Z,99602.97
2023-04-15T15:24:53.578Z,99612.34
2023-04-15T15:27:20.783Z,99617.78
2023-04-15T15:29:47.617Z,99617.47
2023-04-15T15:32:14.381Z,99618.75
2023-04-15T15:34:41.220Z,99623.28
2023-04-15T15:37:07.922Z,99624.22
2023-04-15T15:39:35.994Z,99625.03
2023-04-15T15:42:03.050Z,99627.59
2023-04-15T15:44:29.763Z,99625.91
2023-04-15T15:46:56.496Z,99632.91
2023-04-15T15:49:25.239Z,99632.31
2023-04-15T15:51:51.987Z,99628.53
2023-04-15T15:54:18.725Z,99631.53
2023-04-15T15:56:45.492Z,99636.97
2023-04-15T15:59:12.196Z,99630.38
2023-04-15T16:01:39.137Z,99639.06
2023-04-15T16:04:06.000Z,99633.28
2023-04-15T16:06:34.863Z,99654.66
2023-04-15T16:09:02.284Z,99642.78
2023-04-15T16:11:29.838Z,99653.88
2023-04-15T16:13:56.689Z,99653.94
2023-04-15T16:16:24.235Z,99659.97
2023-04-15T16:18:51.072Z,99672.00
2023-04-15T16:21:17.921Z,99672.91
2023-04-15T16:23:44.787Z,99672.09
2023-04-15T16:26:11.553Z,99672.03
2023-04-15T16:28:38.243Z,99678.00
2023-04-15T16:31:05.308Z,99682.13
2023-04-15T16:33:32.592Z,99680.50
2023-04-15T16:35:59.387Z,99682.13
2023-04-15T16:38:26.154Z,99683.97
2023-04-15T16:40:52.889Z,99688.16
2023-04-15T16:43:19.831Z,99685.63
2023-04-15T16:45:50.750Z,99699.38
2023-04-15T16:48:19.428Z,99696.06
2023-04-15T16:50:46.496Z,99697.81
2023-04-15T16:53:15.300Z,99697.84
2023-04-15T16:55:41.997Z,99700.50
2023-04-15T16:58:08.712Z,99713.50
2023-04-15T17:00:36.925Z,99717.09
2023-04-15T17:03:05.444Z,99716.47
2023-04-15T17:05:32.622Z,99720.06
2023-04-15T17:07:59.590Z,99720.25
2023-04-15T17:10:26.685Z,99728.06
2023-04-15T17:12:56.299Z,99727.38
2023-04-15T17:15:23.486Z,99741.13
2023-04-15T17:17:50.436Z,99738.66
2023-04-15T17:20:20.316Z,99749.84
2023-04-15T17:22:48.656Z,99744.84
2023-04-15T17:25:15.600Z,99750.13
2023-04-15T17:27:42.362Z,99753.63
2023-04-15T17:30:09.927Z,99756.31
2023-04-15T17:32:37.138Z,99762.38
2023-04-15T17:35:06.370Z,99771.06
2023-04-15T17:37:36.256Z,99770.38
2023-04-15T17:40:04.375Z,99775.69
2023-04-15T17:42:32.688Z,99780.09
2023-04-15T17:44:59.373Z,99783.66
2023-04-15T17:47:26.083Z,99788.91
2023-04-15T17:49:52.866Z,99804.41
2023-04-15T17:52:19.619Z,99800.25
2023-04-15T17:54:47.188Z,99797.00
2023-04-15T17:57:13.958Z,99807.34
2023-04-15T17:59:44.001Z,99801.56
2023-04-15T18:02:11.651Z,99805.06
2023-04-15T18:04:39.140Z,99812.78
2023-04-15T18:07:06.487Z,99808.69
2023-04-15T18:09:33.275Z,99814.69
2023-04-15T18:12:00.069Z,99822.44
2023-04-15T18:14:34.262Z,99820.84
2023-04-15T18:17:02.971Z,99822.56
2023-04-15T18:19:30.926Z,99826.84
2023-04-15T18:22:00.220Z,99829.38
2023-04-15T18:24:27.816Z,99832.84
2023-04-15T18:26:54.629Z,99838.84
2023-04-15T18:29:21.465Z,99841.41
2023-04-15T18:31:48.410Z,99845.72
2023-04-15T18:34:15.212Z,99846.63
2023-04-15T18:36:41.928Z,99862.81
2023-04-15T18:39:08.713Z,99870.50
2023-04-15T18:41:35.543Z,99871.41
2023-04-15T18:44:03.485Z,99876.53
2023-04-15T18:46:30.333Z,99884.19
2023-04-15T18:48:57.109Z,99887.63
2023-04-15T18:51:23.892Z,99889.34
2023-04-15T18:53:50.703Z,99894.50
2023-04-15T18:56:19.541Z,99890.25
2023-04-15T18:59:26.963Z,99903.03
2023-04-15T19:01:33.169Z,99914.94
2023-04-15T19:04:01.995Z,99914.13
2023-04-15T19:06:45.575Z,99920.09
2023-04-15T19:11:58.649Z,99928.59
2023-04-15T19:14:30.720Z,99927.75
2023-04-15T19:18:31.840Z,99929.53
2023-04-15T19:20:58.701Z,99932.19
2023-04-15T19:23:25.628Z,99942.34
2023-04-15T19:25:52.589Z,99942.38
2023-04-15T19:28:19.613Z,99939.81
2023-04-15T19:30:46.417Z,99946.63
2023-04-15T19:33:13.360Z,99946.63
2023-04-15T19:35:49.797Z,99943.28
2023-04-15T19:38:44.044Z,99941.63
2023-04-15T19:41:15.898Z,99959.53
2023-04-15T19:43:44.442Z,99958.75
2023-04-15T19:46:16.018Z,99965.56
2023-04-15T19:48:42.932Z,99969.81
2023-04-15T19:51:09.746Z,99980.06
2023-04-15T19:53:36.715Z,99978.38
2023-04-15T19:56:30.736Z,99983.53
2023-04-15T19:59:03.898Z,99983.66
2023-04-15T20:01:31.486Z,99996.41
2023-04-15T20:03:58.583Z,99993.03
2023-04-15T20:06:26.673Z,99999.88
2023-04-15T20:08:53.396Z,100005.03
2023-04-15T20:11:21.273Z,100005.09
2023-04-15T20:13:48.106Z,100007.66
2023-04-15T20:16:14.840Z,100018.72
2023-04-15T20:18:41.579Z,100017.88
2023-04-15T20:21:08.325Z,100012.78
2023-04-15T20:23:35.888Z,100017.88
2023-04-15T20:26:02.777Z,100021.28
2023-04-15T20:28:29.580Z,100026.34
2023-04-15T20:30:56.338Z,100017.91
2023-04-15T20:33:24.633Z,100017.06
2023-04-15T20:35:51.705Z,100024.72
2023-04-15T20:38:18.670Z,100017.97
2023-04-15T20:40:46.005Z,100018.00
2023-04-15T20:43:13.190Z,100024.75
2023-04-15T20:45:40.102Z,100022.25
2023-04-15T20:48:07.071Z,100023.94
2023-04-15T20:50:33.891Z,100022.25
2023-04-15T20:53:00.838Z,100024.81
2023-04-15T20:55:29.560Z,100032.44
2023-04-15T20:57:58.245Z,100031.59
2023-04-15T21:00:25.086Z,100028.22
2023-04-15T21:02:52.071Z,100037.53
2023-04-15T21:05:25.517Z,100039.22
2023-04-15T21:07:54.062Z,100041.81
2023-04-15T21:10:21.471Z,100046.03
2023-04-15T21:12:54.298Z,100055.38
2023-04-15T21:15:35.990Z,100045.22
2023-04-15T21:18:02.949Z,100052.00
2023-04-15T21:20:29.888Z,100058.78
2023-04-15T21:22:56.896Z,100068.06
2023-04-15T21:25:23.772Z,100079.91
2023-04-15T21:27:50.790Z,100078.22
2023-04-15T21:30:17.656Z,100082.44
2023-04-15T21:32:44.451Z,100082.44
2023-04-15T21:35:11.305Z,100075.63
2023-04-15T21:37:38.083Z,100085.78
2023-04-15T21:40:05.889Z,100090.00
2023-04-15T21:42:32.714Z,100099.31
2023-04-15T21:44:59.584Z,100102.66
2023-04-15T21:47:26.391Z,100095.91
2023-04-15T21:49:53.341Z,100098.44
2023-04-15T21:52:20.218Z,100105.22
2023-04-15T21:54:46.972Z,100113.66
2023-04-15T21:57:13.972Z,100102.66
2023-04-15T21:59:40.968Z,100114.53
2023-04-15T22:02:07.874Z,100116.19
2023-04-15T22:04:34.746Z,100121.28
2023-04-15T22:07:02.386Z,100115.34
2023-04-15T22:09:32.633Z,100111.09
2023-04-15T22:11:59.981Z,100123.78
2023-04-15T22:14:36.266Z,100113.63
2023-04-15T22:17:07.119Z,100117.03
2023-04-15T22:19:35.723Z,100111.97
2023-04-15T22:22:04.804Z,100115.34
2023-04-15T22:24:40.760Z,100114.50
2023-04-15T22:27:17.733Z,100117.88
2023-04-15T22:29:51.755Z,100122.09
2023-04-15T22:32:28.304Z,100128.84
2023-04-15T22:34:56.030Z,100125.44
2023-04-15T22:37:24.018Z,100127.16
2023-04-15T22:39:50.879Z,100123.78
2023-04-15T22:42:39.004Z,100131.41
2023-04-15T22:45:11.009Z,100138.13
2023-04-15T22:47:37.931Z,100129.66
2023-04-15T22:50:06.295Z,100133.91
2023-04-15T22:52:33.172Z,100148.28
2023-04-15T22:55:00.060Z,100142.38
2023-04-15T22:57:28.280Z,100149.97
2023-04-15T22:59:55.258Z,100143.22
2023-04-15T23:02:22.318Z,100138.13
2023-04-15T23:04:49.203Z,100138.97
2023-04-15T23:07:16.221Z,100144.03
2023-04-15T23:09:43.017Z,100145.75
2023-04-15T23:12:10.132Z,100155.03
2023-04-15T23:14:37.082Z,100148.28
2023-04-15T23:17:04.048Z,100150.81
2023-04-15T23:19:31.072Z,100155.88
2023-04-15T23:21:58.135Z,100155.06
2023-04-15T23:24:26.858Z,100163.50
2023-04-15T23:26:54.892Z,100157.59
2023-04-15T23:29:21.915Z,100162.66
2023-04-15T23:31:48.751Z,100165.19
2023-04-15T23:34:15.612Z,100161.78
2023-04-15T23:36:42.508Z,100167.72
2023-04-15T23:39:09.589Z,100168.56
2023-04-15T23:41:36.732Z,100168.56
2023-04-15T23:44:04.028Z,100166.03
2023-04-15T23:46:31.026Z,100169.44
2023-04-15T23:48:57.872Z,100160.94
2023-04-15T23:51:24.724Z,100170.25
2023-04-15T23:53:52.413Z,100170.25
2023-04-15T23:56:19.242Z,100166.03
2023-04-15T23:58:46.080Z,100165.19
